Latest Weather Observations for Mareeba

IDQ60801

Issued at 7:32 pm EST Monday 17 December 2018 (issued every 10 minutes, with the page automatically refreshed every 10 minutes)

About weather observations | Map of weather stations | Latest weather observations for QLD | Other Formats
Station Details ID: 031210 Name: MAREEBA AIRPORT Lat: -17.07 Lon: 145.43 Height: 471.93 m
Data from the previous 72 hours. | See also: Recent months at Mareeba
Date/Time
EST
Temp
°C
App
Temp
°C
Dew
Point
°C
Rel
Hum
%
Delta-T
°C
Wind Press
QNH
hPa
Press
MSL
hPa
Rain since
9am
mm
Dir  Spd
km/h
Gust
km/h
Spd
kts
Gust
kts
17/07:30pm 27.1 26.8 13.4 42 8.3 ENE 7 11 4 6 1007.5 - 0.0
17/07:00pm 28.3 27.3 12.2 37 9.5 W 9 11 5 6 1007.1 - 0.0
17/06:30pm 29.9 27.9 11.4 32 10.9 W 13 17 7 9 1006.6 - 0.0
17/06:00pm 32.6 29.4 10.0 25 13.2 WNW 17 20 9 11 1006.2 1002.9 0.0
17/05:30pm 33.5 30.0 8.9 22 14.2 W 17 22 9 12 1006.0 - 0.0
17/05:00pm 34.4 29.5 6.7 18 15.5 W 22 28 12 15 1005.8 - 0.0
17/04:30pm 34.8 29.7 7.8 19 15.4 W 24 33 13 18 1005.8 - 0.0
17/04:00pm 34.9 30.4 7.1 18 15.7 W 20 26 11 14 1005.7 - 0.0
17/03:30pm 35.3 32.0 8.2 19 15.6 W 15 26 8 14 1005.8 - 0.0
17/03:00pm 35.4 31.2 7.5 18 15.9 WSW 19 30 10 16 1006.0 1002.7 0.0
17/02:30pm 34.5 30.7 5.9 17 15.8 WSW 15 20 8 11 1006.4 - 0.0
17/02:00pm 34.5 30.7 9.0 21 14.8 W 19 30 10 16 1006.9 - 0.0
17/01:30pm 34.9 30.3 5.4 16 16.2 WSW 19 30 10 16 1007.3 - 0.0
17/01:00pm 34.8 29.7 7.8 19 15.4 W 24 37 13 20 1007.5 - 0.0
17/12:30pm 33.7 28.9 10.3 24 13.8 W 26 39 14 21 1007.9 - 0.0
17/12:00pm 33.1 30.1 14.7 33 11.6 WNW 24 35 13 19 1008.2 1004.9 0.0
17/11:30am 32.6 29.6 13.8 32 11.6 W 22 37 12 20 1008.7 - 0.0
17/11:00am 31.8 29.7 15.3 37 10.4 W 20 30 11 16 1009.3 - 0.0
17/10:30am 30.5 28.7 15.4 40 9.5 W 19 26 10 14 1009.6 - 0.0
17/10:00am 29.0 27.7 16.9 48 7.7 W 19 26 10 14 1009.9 - 0.0
17/09:30am 28.5 28.3 16.7 48 7.5 WSW 13 20 7 11 1010.2 - 0.0
17/09:00am 27.4 25.7 15.7 48 7.3 WSW 19 26 10 14 1010.3 1007.0 0.2
17/08:30am 26.7 25.6 16.3 53 6.5 W 17 30 9 16 1010.1 - 0.2
17/08:00am 24.2 25.5 17.0 64 4.5 ENE 6 9 3 5 1010.0 - 0.2
17/07:30am 22.6 24.3 17.1 71 3.4 NE 4 7 2 4 1009.8 - 0.2
17/07:00am 20.2 21.9 16.2 78 2.5 ESE 2 9 1 5 1009.5 - 0.2
17/06:30am 17.8 18.3 15.1 84 1.6 ESE 6 9 3 5 1009.0 - 0.2
17/06:00am 16.9 18.1 13.8 82 1.8 CALM 0 0 0 0 1008.7 1005.4 0.2
17/05:30am 17.8 16.4 14.5 81 1.9 S 15 17 8 9 1008.1 - 0.2
17/05:00am 17.9 18.5 15.2 84 1.6 SE 6 9 3 5 1007.8 - 0.2
17/04:30am 17.2 17.2 15.2 88 1.2 SSE 9 11 5 6 1007.8 - 0.2
17/04:00am 17.3 17.4 15.5 89 1.1 SE 9 11 5 6 1007.6 - 0.2
17/03:30am 17.5 19.3 15.5 88 1.2 CALM 0 7 0 4 1007.4 - 0.2
17/03:00am 19.1 19.6 16.5 85 1.6 SSE 9 13 5 7 1007.1 1003.8 0.2
17/02:30am 18.3 19.8 15.6 84 1.6 SSE 2 7 1 4 1007.1 - 0.2
17/02:00am 20.0 20.8 16.4 80 2.2 ESE 7 9 4 5 1007.1 - 0.2
17/01:30am 19.5 20.7 16.0 80 2.1 SSE 4 7 2 4 1006.9 - 0.2
17/01:00am 20.1 21.4 16.1 78 2.4 SW 4 9 2 5 1007.0 - 0.2
17/12:30am 20.9 21.5 15.9 73 3.1 SE 7 11 4 6 1007.3 - 0.2
17/12:00am 21.9 22.8 16.6 72 3.3 SE 7 9 4 5 1007.9 1004.6 0.2
 
Date/Time
EST
Temp
°C
App
Temp
°C
Dew
Point
°C
Rel
Hum
%
Delta-T
°C
Wind Press
QNH
hPa
Press
MSL
hPa
Rain since
9am
mm
Dir  Spd
km/h
Gust
km/h
Spd
kts
Gust
kts
16/11:30pm 20.5 21.3 16.3 77 2.6 SE 7 9 4 5 1008.0 - 0.2
16/11:00pm 21.5 22.5 16.9 75 2.9 SE 7 7 4 4 1008.0 - 0.2
16/10:30pm 21.7 23.4 17.1 75 2.9 SSE 4 7 2 4 1007.9 - 0.2
16/10:00pm 21.8 22.9 17.2 75 2.9 SE 7 9 4 5 1007.9 - 0.2
16/09:30pm 22.8 24.1 17.5 72 3.3 ESE 7 9 4 5 1007.5 - 0.2
16/09:00pm 23.0 25.7 17.7 72 3.4 CALM 0 0 0 0 1007.1 1003.8 0.2
16/08:30pm 23.8 26.3 17.3 67 4.1 CALM 0 0 0 0 1006.9 - 0.2
16/08:00pm 24.6 27.1 17.3 64 4.6 CALM 0 0 0 0 1006.6 - 0.2
16/07:30pm 25.9 28.5 17.5 59 5.4 CALM 0 0 0 0 1006.2 - 0.2
16/07:00pm 27.6 28.7 16.6 51 7.0 W 6 7 3 4 1005.9 - 0.2
16/06:30pm 29.7 30.0 16.1 43 8.6 W 9 11 5 6 1005.6 - 0.2
16/06:00pm 31.1 29.9 15.1 38 10.1 W 15 20 8 11 1005.1 1001.8 0.2
16/05:30pm 31.6 30.8 16.0 39 9.9 W 15 22 8 12 1004.9 - 0.2
16/05:00pm 32.3 29.9 14.4 33 11.1 WSW 20 28 11 15 1004.6 - 0.2
16/04:30pm 32.5 29.4 14.6 34 11.2 W 24 32 13 17 1004.3 - 0.2
16/04:00pm 33.2 31.0 17.0 38 10.5 W 24 33 13 18 1003.9 - 0.2
16/03:30pm 33.7 30.6 11.5 26 13.3 WSW 19 26 10 14 1004.0 - 0.2
16/03:00pm 33.9 29.0 8.5 21 14.6 WSW 24 35 13 19 1004.0 1000.7 0.2
16/02:30pm 34.0 30.4 11.8 26 13.4 SW 22 33 12 18 1004.4 - 0.2
16/02:00pm 33.9 31.3 13.9 30 12.4 W 20 35 11 19 1004.9 - 0.2
16/01:30pm 32.5 31.8 18.7 44 9.1 SW 20 35 11 19 1005.3 - 0.2
16/01:00pm 31.4 31.9 20.0 50 7.7 WSW 17 28 9 15 1005.9 - 0.2
16/12:30pm 30.9 31.0 19.9 52 7.4 WSW 19 30 10 16 1006.4 - 0.2
16/12:00pm 30.2 29.8 21.0 58 6.3 SW 24 35 13 19 1006.7 1003.3 0.2
16/11:30am 29.0 30.9 22.0 66 4.8 SW 15 22 8 12 1007.0 - 0.2
16/11:00am 27.6 29.2 22.1 72 3.8 W 17 28 9 15 1007.4 - 0.2
16/10:30am 27.4 29.2 22.6 75 3.3 W 17 28 9 15 1007.5 - 0.2
16/10:00am 27.3 28.7 22.9 77 3.0 W 20 30 11 16 1007.6 - 0.2
16/09:30am 26.3 29.8 22.8 81 2.4 W 9 22 5 12 1007.9 - 0.0
16/09:00am 25.7 29.1 23.4 87 1.6 WSW 11 20 6 11 1007.7 1004.4 16.2
16/08:30am 24.9 26.5 23.3 91 1.1 W 20 28 11 15 1007.6 - 16.2
16/08:00am 24.2 26.0 23.3 95 0.6 W 19 26 10 14 1007.5 - 16.2
16/07:30am 23.7 26.4 23.5 99 0.1 W 15 20 8 11 1007.4 - 16.2
16/07:00am 23.1 26.0 23.1 100 0.0 W 13 19 7 10 1006.9 - 16.2
16/06:30am 22.9 26.4 22.9 100 0.0 W 9 15 5 8 1006.5 - 16.2
16/06:00am 22.6 25.6 22.6 100 0.0 WSW 11 17 6 9 1005.6 1002.3 16.2
16/05:30am 22.4 25.6 22.4 100 0.0 W 9 19 5 10 1004.8 - 16.2
16/05:00am 22.4 24.5 22.4 100 0.0 WNW 15 20 8 11 1004.4 - 16.2
16/04:30am 22.8 26.3 22.8 100 0.0 WNW 9 15 5 8 1004.3 - 16.2
16/04:00am 22.9 25.3 22.9 100 0.0 W 15 20 8 11 1003.9 - 16.2
16/03:30am 22.7 26.1 22.7 100 0.0 WNW 9 13 5 7 1003.6 - 16.2
16/03:00am 22.7 25.7 22.7 100 0.0 WNW 11 13 6 7 1003.5 1000.2 16.0
16/02:30am 22.8 25.5 22.8 100 0.0 WNW 13 17 7 9 1003.6 - 16.0
16/02:00am 23.1 25.6 23.1 100 0.0 WNW 15 20 8 11 1003.8 - 16.0
16/01:30am 23.4 26.4 23.4 100 0.0 W 13 20 7 11 1004.0 - 16.0
16/01:00am 23.5 26.2 23.5 100 0.0 WNW 15 20 8 11 1004.5 - 16.0
16/12:30am 23.6 27.1 23.6 100 0.0 WNW 11 17 6 9 1004.6 - 16.0
16/12:00am 23.9 27.2 23.9 100 0.0 WNW 13 17 7 9 1004.9 1001.6 16.0
 
Date/Time
EST
Temp
°C
App
Temp
°C
Dew
Point
°C
Rel
Hum
%
Delta-T
°C
Wind Press
QNH
hPa
Press
MSL
hPa
Rain since
9am
mm
Dir  Spd
km/h
Gust
km/h
Spd
kts
Gust
kts
15/11:30pm 24.0 27.4 24.0 100 0.0 WNW 13 19 7 10 1005.1 - 16.0
15/11:00pm 24.6 29.1 24.6 100 0.0 N 9 15 5 8 1005.0 - 15.8
15/10:30pm 24.7 29.8 24.7 100 0.0 NNE 6 9 3 5 1005.2 - 15.6
15/10:00pm 24.6 30.1 24.6 100 0.0 NE 4 9 2 5 1005.2 - 15.6
15/09:30pm 24.7 29.6 24.7 100 0.0 ENE 7 9 4 5 1005.2 - 15.6
15/09:00pm 24.6 30.1 24.6 100 0.0 NE 4 11 2 6 1004.9 1001.6 15.4
15/08:30pm 24.6 30.4 24.6 100 0.0 NE 2 7 1 4 1004.5 - 15.4
15/08:00pm 24.7 30.2 24.7 100 0.0 E 4 7 2 4 1004.6 - 14.2
15/07:30pm 24.7 29.8 24.7 100 0.0 ENE 6 9 3 5 1004.7 - 13.4
15/07:00pm 24.7 30.6 24.7 100 0.0 ESE 2 7 1 4 1004.9 - 13.4
15/06:30pm 24.5 30.3 24.5 100 0.0 NE 2 9 1 5 1004.4 - 13.4
15/06:00pm 24.5 28.6 24.5 100 0.0 ENE 11 15 6 8 1004.3 1000.9 13.4
15/05:30pm 24.7 29.3 24.7 100 0.0 NE 9 15 5 8 1003.9 - 13.2
15/05:00pm 24.9 29.2 24.9 100 0.0 NNE 11 20 6 11 1004.2 - 11.4
15/04:30pm 25.2 29.9 24.9 98 0.2 ENE 9 15 5 8 1003.6 - 11.0
15/04:00pm 25.1 29.6 24.6 97 0.4 ENE 9 15 5 8 1003.5 - 11.0
15/03:30pm 25.0 29.1 24.5 97 0.4 NNE 11 20 6 11 1004.5 - 11.0
15/03:00pm 23.9 26.3 23.7 99 0.1 NE 17 26 9 14 1004.5 1001.1 10.8
15/02:30pm 24.3 28.2 24.3 100 0.0 NNE 11 19 6 10 1005.3 - 7.2
15/02:00pm 24.5 28.1 23.8 96 0.5 NE 11 24 6 13 1005.3 - 5.4
15/01:30pm 25.6 29.1 23.6 89 1.4 NE 11 20 6 11 1005.4 - 1.4
15/01:00pm 26.1 29.0 23.8 87 1.6 ENE 15 26 8 14 1005.9 - 1.2
15/12:30pm 26.6 29.0 23.7 84 2.0 NE 17 28 9 15 1006.6 - 1.2
15/12:00pm 27.6 30.5 24.4 83 2.3 NE 17 30 9 16 1006.8 1003.5 1.2
15/11:30am 26.1 30.1 23.8 87 1.6 NE 9 13 5 7 1007.2 - 0.2
15/11:00am 26.7 29.8 24.2 86 1.8 ENE 15 24 8 13 1007.6 - 0.0
15/10:30am 25.2 27.7 23.8 92 1.0 E 17 24 9 13 1007.7 - 0.0
15/10:00am 27.0 30.3 23.9 83 2.2 NNE 13 20 7 11 1008.2 - 0.0
15/09:30am 26.6 30.6 23.7 84 2.0 ENE 9 15 5 8 1008.2 - 0.0
15/09:00am 26.4 29.6 23.1 82 2.3 NE 11 19 6 10 1008.3 1005.0 0.6
15/08:30am 26.0 30.1 23.3 85 1.9 ENE 7 13 4 7 1008.4 - 0.6
15/08:00am 25.5 29.8 23.7 90 1.3 NE 7 13 4 7 1008.7 - 0.6
15/07:30am 25.0 30.6 23.6 92 1.0 CALM 0 0 0 0 1008.8 - 0.6
15/07:00am 24.4 28.2 23.4 94 0.7 SE 9 13 5 7 1008.3 - 0.6
15/06:30am 24.0 28.3 23.3 96 0.5 SSE 6 7 3 4 1008.2 - 0.6
15/06:00am 23.8 29.2 23.3 97 0.3 CALM 0 9 0 5 1007.9 1004.6 0.6
15/05:30am 23.7 29.2 23.4 98 0.2 CALM 0 0 0 0 1008.0 - 0.6
15/05:00am 23.7 29.2 23.4 98 0.2 CALM 0 0 0 0 1007.7 - 0.6
15/04:30am 23.6 29.1 23.4 99 0.1 CALM 0 0 0 0 1007.5 - 0.6
15/04:00am 23.6 29.1 23.4 99 0.1 CALM 0 0 0 0 1007.3 - 0.6
15/03:30am 23.7 29.1 23.2 97 0.3 CALM 0 0 0 0 1007.2 - 0.6
15/03:00am 23.6 29.0 23.3 98 0.2 CALM 0 0 0 0 1007.4 1004.1 0.6
15/02:30am 23.7 29.1 23.2 97 0.3 CALM 0 0 0 0 1007.5 - 0.6
15/02:00am 23.6 28.8 22.8 95 0.5 CALM 0 0 0 0 1007.5 - 0.6
15/01:30am 23.6 28.8 22.9 96 0.5 CALM 0 0 0 0 1007.6 - 0.6
15/01:00am 23.7 28.8 22.7 94 0.7 CALM 0 0 0 0 1007.5 - 0.6
15/12:30am 23.8 28.9 22.6 93 0.8 CALM 0 0 0 0 1007.9 - 0.6
15/12:00am 24.0 28.9 22.3 90 1.2 CALM 0 0 0 0 1008.3 1005.0 0.6
 
Date/Time
EST
Temp
°C
App
Temp
°C
Dew
Point
°C
Rel
Hum
%
Delta-T
°C
Wind Press
QNH
hPa
Press
MSL
hPa
Rain since
9am
mm
Dir  Spd
km/h
Gust
km/h
Spd
kts
Gust
kts
14/11:30pm 24.1 27.9 22.4 90 1.2 SSE 6 9 3 5 1008.4 - 0.6
14/11:00pm 24.3 29.0 22.0 87 1.6 CALM 0 2 0 1 1008.5 - 0.6
14/10:30pm 24.3 27.4 22.2 88 1.4 SSW 9 15 5 8 1008.9 - 0.6
14/10:00pm 24.4 27.9 21.9 86 1.7 SW 6 7 3 4 1009.2 - 0.6
14/09:30pm 24.6 28.0 21.7 84 2.0 SW 6 7 3 4 1009.0 - 0.6
14/09:00pm 24.8 27.7 21.7 83 2.1 SW 9 11 5 6 1009.0 1005.7 0.6
14/08:30pm 25.4 30.1 24.0 92 1.0 W 6 9 3 5 1009.0 - 0.6
14/08:00pm 25.4 30.5 23.3 88 1.5 S 2 7 1 4 1008.7 - 0.6

Other Formats:

Comma delimited format used in spreadsheet applications
http://www.bom.gov.au/fwo/IDQ60801/IDQ60801.95286.axf

JavaScript Object Notation format (JSON) in row-major order
http://www.bom.gov.au/fwo/IDQ60801/IDQ60801.95286.json